sensor_id;sensor_type;location;lat;lon;timestamp;P1;durP1;ratioP1;P2;durP2;ratioP2
81160;SDS011;70637;48.514;14.500;2023-06-14T00:01:41;3.50;;;2.20;;
81160;SDS011;70637;48.514;14.500;2023-06-14T00:04:10;5.55;;;2.30;;
81160;SDS011;70637;48.514;14.500;2023-06-14T00:06:36;5.55;;;2.00;;
81160;SDS011;70637;48.514;14.500;2023-06-14T00:09:03;6.80;;;2.40;;
81160;SDS011;70637;48.514;14.500;2023-06-14T00:11:30;5.43;;;2.17;;
81160;SDS011;70637;48.514;14.500;2023-06-14T00:13:56;3.38;;;2.05;;
81160;SDS011;70637;48.514;14.500;2023-06-14T00:16:22;3.70;;;2.13;;
81160;SDS011;70637;48.514;14.500;2023-06-14T00:18:49;5.47;;;2.00;;
81160;SDS011;70637;48.514;14.500;2023-06-14T00:21:17;7.63;;;2.33;;
81160;SDS011;70637;48.514;14.500;2023-06-14T00:23:44;6.20;;;2.38;;
81160;SDS011;70637;48.514;14.500;2023-06-14T00:26:09;3.40;;;2.00;;
81160;SDS011;70637;48.514;14.500;2023-06-14T00:28:35;4.25;;;2.03;;
81160;SDS011;70637;48.514;14.500;2023-06-14T00:31:01;6.07;;;2.22;;
81160;SDS011;70637;48.514;14.500;2023-06-14T00:33:26;4.38;;;2.13;;
81160;SDS011;70637;48.514;14.500;2023-06-14T00:35:52;3.22;;;1.77;;
81160;SDS011;70637;48.514;14.500;2023-06-14T00:38:20;4.43;;;1.90;;
81160;SDS011;70637;48.514;14.500;2023-06-14T00:40:46;4.57;;;1.98;;
81160;SDS011;70637;48.514;14.500;2023-06-14T00:43:12;5.13;;;2.15;;
81160;SDS011;70637;48.514;14.500;2023-06-14T00:45:37;5.05;;;2.13;;
81160;SDS011;70637;48.514;14.500;2023-06-14T00:48:04;4.97;;;2.20;;
81160;SDS011;70637;48.514;14.500;2023-06-14T00:50:31;3.10;;;1.92;;
81160;SDS011;70637;48.514;14.500;2023-06-14T00:52:58;4.60;;;1.98;;
81160;SDS011;70637;48.514;14.500;2023-06-14T00:55:25;4.65;;;1.90;;
81160;SDS011;70637;48.514;14.500;2023-06-14T00:57:51;3.42;;;1.73;;
81160;SDS011;70637;48.514;14.500;2023-06-14T01:00:18;3.25;;;1.85;;
81160;SDS011;70637;48.514;14.500;2023-06-14T01:02:44;4.90;;;1.88;;
81160;SDS011;70637;48.514;14.500;2023-06-14T01:05:09;4.80;;;2.13;;
81160;SDS011;70637;48.514;14.500;2023-06-14T01:13:07;4.05;;;1.80;;
81160;SDS011;70637;48.514;14.500;2023-06-14T01:15:34;4.82;;;1.67;;
81160;SDS011;70637;48.514;14.500;2023-06-14T01:18:02;5.00;;;1.70;;
81160;SDS011;70637;48.514;14.500;2023-06-14T01:20:29;5.82;;;2.03;;
81160;SDS011;70637;48.514;14.500;2023-06-14T01:22:57;3.95;;;1.95;;
81160;SDS011;70637;48.514;14.500;2023-06-14T01:25:23;5.00;;;2.00;;
81160;SDS011;70637;48.514;14.500;2023-06-14T01:27:50;3.55;;;1.80;;
81160;SDS011;70637;48.514;14.500;2023-06-14T01:30:18;3.75;;;1.90;;
81160;SDS011;70637;48.514;14.500;2023-06-14T01:32:46;4.70;;;2.20;;
81160;SDS011;70637;48.514;14.500;2023-06-14T01:35:13;2.45;;;1.70;;
81160;SDS011;70637;48.514;14.500;2023-06-14T01:37:39;3.15;;;1.92;;
81160;SDS011;70637;48.514;14.500;2023-06-14T01:40:07;2.78;;;1.65;;
81160;SDS011;70637;48.514;14.500;2023-06-14T01:42:35;4.05;;;1.88;;
81160;SDS011;70637;48.514;14.500;2023-06-14T01:45:06;3.40;;;1.60;;
81160;SDS011;70637;48.514;14.500;2023-06-14T01:47:32;3.80;;;1.90;;
81160;SDS011;70637;48.514;14.500;2023-06-14T01:49:59;3.13;;;1.92;;
81160;SDS011;70637;48.514;14.500;2023-06-14T01:52:25;4.20;;;1.90;;
81160;SDS011;70637;48.514;14.500;2023-06-14T01:54:53;3.90;;;1.77;;
81160;SDS011;70637;48.514;14.500;2023-06-14T01:57:18;3.65;;;1.75;;
81160;SDS011;70637;48.514;14.500;2023-06-14T01:59:45;2.78;;;1.90;;
81160;SDS011;70637;48.514;14.500;2023-06-14T02:02:13;2.85;;;1.67;;
81160;SDS011;70637;48.514;14.500;2023-06-14T02:04:40;2.70;;;1.80;;
81160;SDS011;70637;48.514;14.500;2023-06-14T02:07:05;4.20;;;1.70;;
81160;SDS011;70637;48.514;14.500;2023-06-14T02:09:31;2.97;;;1.77;;
81160;SDS011;70637;48.514;14.500;2023-06-14T02:11:57;2.53;;;1.70;;
81160;SDS011;70637;48.514;14.500;2023-06-14T02:14:23;4.00;;;1.88;;
81160;SDS011;70637;48.514;14.500;2023-06-14T02:16:49;2.63;;;1.60;;
81160;SDS011;70637;48.514;14.500;2023-06-14T02:19:18;3.25;;;1.80;;
81160;SDS011;70637;48.514;14.500;2023-06-14T02:21:45;3.88;;;1.95;;
81160;SDS011;70637;48.514;14.500;2023-06-14T02:24:12;2.85;;;1.60;;
81160;SDS011;70637;48.514;14.500;2023-06-14T02:26:38;2.78;;;1.73;;
81160;SDS011;70637;48.514;14.500;2023-06-14T02:29:04;3.25;;;1.60;;
81160;SDS011;70637;48.514;14.500;2023-06-14T02:31:31;3.75;;;1.70;;
81160;SDS011;70637;48.514;14.500;2023-06-14T02:33:57;2.63;;;1.63;;
81160;SDS011;70637;48.514;14.500;2023-06-14T02:36:23;3.80;;;1.92;;
81160;SDS011;70637;48.514;14.500;2023-06-14T02:38:49;3.15;;;1.77;;
81160;SDS011;70637;48.514;14.500;2023-06-14T02:41:14;2.05;;;1.55;;
81160;SDS011;70637;48.514;14.500;2023-06-14T02:43:40;2.63;;;1.45;;
81160;SDS011;70637;48.514;14.500;2023-06-14T02:46:07;3.05;;;1.60;;
81160;SDS011;70637;48.514;14.500;2023-06-14T02:48:32;3.50;;;1.60;;
81160;SDS011;70637;48.514;14.500;2023-06-14T02:50:58;3.05;;;1.63;;
81160;SDS011;70637;48.514;14.500;2023-06-14T02:53:24;2.85;;;1.67;;
81160;SDS011;70637;48.514;14.500;2023-06-14T02:55:49;4.45;;;2.00;;
81160;SDS011;70637;48.514;14.500;2023-06-14T02:58:15;2.92;;;1.77;;
81160;SDS011;70637;48.514;14.500;2023-06-14T03:00:41;2.70;;;1.58;;
81160;SDS011;70637;48.514;14.500;2023-06-14T03:03:07;2.03;;;1.50;;
81160;SDS011;70637;48.514;14.500;2023-06-14T03:05:40;4.53;;;1.92;;
81160;SDS011;70637;48.514;14.500;2023-06-14T03:08:12;4.03;;;1.65;;
81160;SDS011;70637;48.514;14.500;2023-06-14T03:10:48;3.08;;;1.80;;
81160;SDS011;70637;48.514;14.500;2023-06-14T03:13:14;3.28;;;1.70;;
81160;SDS011;70637;48.514;14.500;2023-06-14T03:15:46;2.13;;;1.42;;
81160;SDS011;70637;48.514;14.500;2023-06-14T03:18:15;2.22;;;1.58;;
81160;SDS011;70637;48.514;14.500;2023-06-14T03:20:43;2.58;;;1.60;;
81160;SDS011;70637;48.514;14.500;2023-06-14T03:23:10;2.78;;;1.77;;
81160;SDS011;70637;48.514;14.500;2023-06-14T03:25:37;2.75;;;1.70;;
81160;SDS011;70637;48.514;14.500;2023-06-14T03:28:05;3.20;;;1.65;;
81160;SDS011;70637;48.514;14.500;2023-06-14T03:30:31;2.53;;;1.42;;
81160;SDS011;70637;48.514;14.500;2023-06-14T03:32:57;2.72;;;1.50;;
81160;SDS011;70637;48.514;14.500;2023-06-14T03:35:26;2.15;;;1.40;;
81160;SDS011;70637;48.514;14.500;2023-06-14T03:37:53;3.58;;;1.77;;
81160;SDS011;70637;48.514;14.500;2023-06-14T03:40:20;2.75;;;2.00;;
81160;SDS011;70637;48.514;14.500;2023-06-14T03:42:46;2.22;;;1.50;;
81160;SDS011;70637;48.514;14.500;2023-06-14T03:45:12;3.50;;;1.67;;
81160;SDS011;70637;48.514;14.500;2023-06-14T03:47:38;3.00;;;1.58;;
81160;SDS011;70637;48.514;14.500;2023-06-14T03:50:04;2.15;;;1.33;;
81160;SDS011;70637;48.514;14.500;2023-06-14T03:52:30;2.75;;;1.58;;
81160;SDS011;70637;48.514;14.500;2023-06-14T03:54:56;3.53;;;1.52;;
81160;SDS011;70637;48.514;14.500;2023-06-14T03:57:23;3.08;;;1.60;;
81160;SDS011;70637;48.514;14.500;2023-06-14T03:59:48;3.28;;;1.70;;
81160;SDS011;70637;48.514;14.500;2023-06-14T04:02:14;3.58;;;1.50;;
81160;SDS011;70637;48.514;14.500;2023-06-14T04:04:41;2.60;;;1.50;;
81160;SDS011;70637;48.514;14.500;2023-06-14T04:07:09;2.28;;;1.67;;
81160;SDS011;70637;48.514;14.500;2023-06-14T04:09:36;2.45;;;1.55;;
81160;SDS011;70637;48.514;14.500;2023-06-14T04:12:03;2.80;;;1.42;;
81160;SDS011;70637;48.514;14.500;2023-06-14T04:14:29;1.80;;;1.30;;
81160;SDS011;70637;48.514;14.500;2023-06-14T04:16:55;2.35;;;1.50;;
81160;SDS011;70637;48.514;14.500;2023-06-14T04:19:21;2.40;;;1.52;;
81160;SDS011;70637;48.514;14.500;2023-06-14T04:21:47;2.60;;;1.55;;
81160;SDS011;70637;48.514;14.500;2023-06-14T04:24:12;1.60;;;1.30;;
81160;SDS011;70637;48.514;14.500;2023-06-14T04:26:41;1.73;;;1.30;;
81160;SDS011;70637;48.514;14.500;2023-06-14T04:29:09;3.63;;;1.60;;
81160;SDS011;70637;48.514;14.500;2023-06-14T04:31:42;3.05;;;1.40;;
81160;SDS011;70637;48.514;14.500;2023-06-14T04:34:09;2.70;;;1.55;;
81160;SDS011;70637;48.514;14.500;2023-06-14T04:36:41;2.08;;;1.30;;
81160;SDS011;70637;48.514;14.500;2023-06-14T04:39:17;3.42;;;1.60;;
81160;SDS011;70637;48.514;14.500;2023-06-14T04:41:43;3.92;;;1.60;;
81160;SDS011;70637;48.514;14.500;2023-06-14T04:44:09;2.03;;;1.40;;
81160;SDS011;70637;48.514;14.500;2023-06-14T04:46:35;1.50;;;1.30;;
81160;SDS011;70637;48.514;14.500;2023-06-14T04:49:10;2.75;;;1.50;;
81160;SDS011;70637;48.514;14.500;2023-06-14T04:51:42;3.00;;;1.60;;
81160;SDS011;70637;48.514;14.500;2023-06-14T04:54:15;2.70;;;1.50;;
81160;SDS011;70637;48.514;14.500;2023-06-14T04:56:43;3.33;;;1.40;;
81160;SDS011;70637;48.514;14.500;2023-06-14T04:59:10;3.00;;;1.48;;
81160;SDS011;70637;48.514;14.500;2023-06-14T05:01:36;2.80;;;1.60;;
81160;SDS011;70637;48.514;14.500;2023-06-14T05:04:02;3.28;;;1.40;;
81160;SDS011;70637;48.514;14.500;2023-06-14T05:06:28;2.20;;;1.63;;
81160;SDS011;70637;48.514;14.500;2023-06-14T05:08:55;2.15;;;1.38;;
81160;SDS011;70637;48.514;14.500;2023-06-14T05:11:21;2.38;;;1.42;;
81160;SDS011;70637;48.514;14.500;2023-06-14T05:13:49;2.72;;;1.50;;
81160;SDS011;70637;48.514;14.500;2023-06-14T05:16:15;5.00;;;1.65;;
81160;SDS011;70637;48.514;14.500;2023-06-14T05:18:44;2.22;;;1.30;;
81160;SDS011;70637;48.514;14.500;2023-06-14T05:21:10;4.72;;;1.58;;
81160;SDS011;70637;48.514;14.500;2023-06-14T05:23:36;6.47;;;1.80;;
81160;SDS011;70637;48.514;14.500;2023-06-14T05:26:02;3.78;;;1.60;;
81160;SDS011;70637;48.514;14.500;2023-06-14T05:28:29;2.78;;;1.58;;
81160;SDS011;70637;48.514;14.500;2023-06-14T05:30:55;8.68;;;1.70;;
81160;SDS011;70637;48.514;14.500;2023-06-14T05:33:21;5.57;;;1.70;;
81160;SDS011;70637;48.514;14.500;2023-06-14T05:35:47;10.63;;;1.80;;
81160;SDS011;70637;48.514;14.500;2023-06-14T05:38:12;8.93;;;2.20;;
81160;SDS011;70637;48.514;14.500;2023-06-14T05:40:38;12.77;;;1.85;;
81160;SDS011;70637;48.514;14.500;2023-06-14T05:43:03;17.70;;;2.30;;
81160;SDS011;70637;48.514;14.500;2023-06-14T05:45:29;13.15;;;1.77;;
81160;SDS011;70637;48.514;14.500;2023-06-14T05:47:55;12.50;;;1.85;;
81160;SDS011;70637;48.514;14.500;2023-06-14T05:50:20;15.27;;;1.77;;
81160;SDS011;70637;48.514;14.500;2023-06-14T05:52:46;10.15;;;1.70;;
81160;SDS011;70637;48.514;14.500;2023-06-14T05:55:12;9.80;;;1.92;;
81160;SDS011;70637;48.514;14.500;2023-06-14T05:57:38;12.30;;;2.00;;
81160;SDS011;70637;48.514;14.500;2023-06-14T06:00:04;16.02;;;2.45;;
81160;SDS011;70637;48.514;14.500;2023-06-14T06:02:39;20.40;;;2.55;;
81160;SDS011;70637;48.514;14.500;2023-06-14T06:05:06;13.90;;;2.63;;
81160;SDS011;70637;48.514;14.500;2023-06-14T06:07:31;15.07;;;3.00;;
81160;SDS011;70637;48.514;14.500;2023-06-14T06:09:57;12.45;;;2.30;;
81160;SDS011;70637;48.514;14.500;2023-06-14T06:12:23;14.77;;;2.35;;
81160;SDS011;70637;48.514;14.500;2023-06-14T06:14:48;22.88;;;2.78;;
81160;SDS011;70637;48.514;14.500;2023-06-14T06:17:14;13.45;;;2.47;;
81160;SDS011;70637;48.514;14.500;2023-06-14T06:19:40;18.00;;;2.55;;
81160;SDS011;70637;48.514;14.500;2023-06-14T06:22:05;16.90;;;2.60;;
81160;SDS011;70637;48.514;14.500;2023-06-14T06:24:31;32.90;;;3.20;;
81160;SDS011;70637;48.514;14.500;2023-06-14T06:26:57;17.55;;;2.53;;
81160;SDS011;70637;48.514;14.500;2023-06-14T06:29:23;23.77;;;3.58;;
81160;SDS011;70637;48.514;14.500;2023-06-14T06:31:48;18.67;;;3.03;;
81160;SDS011;70637;48.514;14.500;2023-06-14T06:34:16;15.52;;;2.70;;
81160;SDS011;70637;48.514;14.500;2023-06-14T06:36:42;14.00;;;2.70;;
81160;SDS011;70637;48.514;14.500;2023-06-14T06:39:07;14.90;;;2.53;;
81160;SDS011;70637;48.514;14.500;2023-06-14T06:41:35;25.60;;;2.97;;
81160;SDS011;70637;48.514;14.500;2023-06-14T06:44:03;19.67;;;2.80;;
81160;SDS011;70637;48.514;14.500;2023-06-14T06:46:28;18.05;;;2.70;;
81160;SDS011;70637;48.514;14.500;2023-06-14T06:48:54;18.05;;;2.80;;
81160;SDS011;70637;48.514;14.500;2023-06-14T06:51:19;34.60;;;2.83;;
81160;SDS011;70637;48.514;14.500;2023-06-14T06:53:51;22.98;;;3.00;;
81160;SDS011;70637;48.514;14.500;2023-06-14T06:56:19;18.52;;;2.83;;
81160;SDS011;70637;48.514;14.500;2023-06-14T06:58:48;10.95;;;2.63;;
81160;SDS011;70637;48.514;14.500;2023-06-14T07:01:14;14.50;;;3.10;;
81160;SDS011;70637;48.514;14.500;2023-06-14T07:03:40;15.73;;;2.83;;
81160;SDS011;70637;48.514;14.500;2023-06-14T07:06:06;10.50;;;2.88;;
81160;SDS011;70637;48.514;14.500;2023-06-14T07:08:32;14.85;;;2.70;;
81160;SDS011;70637;48.514;14.500;2023-06-14T07:10:57;15.35;;;3.25;;
81160;SDS011;70637;48.514;14.500;2023-06-14T07:13:23;9.05;;;2.22;;
81160;SDS011;70637;48.514;14.500;2023-06-14T07:15:49;8.18;;;2.78;;
81160;SDS011;70637;48.514;14.500;2023-06-14T07:18:14;5.90;;;2.50;;
81160;SDS011;70637;48.514;14.500;2023-06-14T07:20:40;8.82;;;3.00;;
81160;SDS011;70637;48.514;14.500;2023-06-14T07:23:08;14.55;;;2.85;;
81160;SDS011;70637;48.514;14.500;2023-06-14T07:25:33;8.55;;;2.50;;
81160;SDS011;70637;48.514;14.500;2023-06-14T07:27:59;5.95;;;2.70;;
81160;SDS011;70637;48.514;14.500;2023-06-14T07:30:25;7.38;;;2.45;;
81160;SDS011;70637;48.514;14.500;2023-06-14T07:32:52;21.73;;;2.63;;
81160;SDS011;70637;48.514;14.500;2023-06-14T07:35:19;7.55;;;2.70;;
81160;SDS011;70637;48.514;14.500;2023-06-14T07:37:45;5.82;;;2.75;;
81160;SDS011;70637;48.514;14.500;2023-06-14T07:40:12;8.98;;;2.60;;
81160;SDS011;70637;48.514;14.500;2023-06-14T07:42:38;7.22;;;2.85;;
81160;SDS011;70637;48.514;14.500;2023-06-14T07:45:04;5.20;;;2.40;;
81160;SDS011;70637;48.514;14.500;2023-06-14T07:47:30;5.93;;;2.40;;
81160;SDS011;70637;48.514;14.500;2023-06-14T07:49:57;5.32;;;2.33;;
81160;SDS011;70637;48.514;14.500;2023-06-14T07:52:22;4.80;;;2.47;;
81160;SDS011;70637;48.514;14.500;2023-06-14T07:54:48;4.47;;;2.20;;
81160;SDS011;70637;48.514;14.500;2023-06-14T07:57:13;5.03;;;2.42;;
81160;SDS011;70637;48.514;14.500;2023-06-14T07:59:39;6.22;;;2.40;;
81160;SDS011;70637;48.514;14.500;2023-06-14T08:02:05;3.88;;;2.10;;
81160;SDS011;70637;48.514;14.500;2023-06-14T08:04:31;5.20;;;2.78;;
81160;SDS011;70637;48.514;14.500;2023-06-14T08:06:58;5.20;;;2.55;;
81160;SDS011;70637;48.514;14.500;2023-06-14T08:09:24;5.97;;;2.40;;
81160;SDS011;70637;48.514;14.500;2023-06-14T08:11:50;5.63;;;2.60;;
81160;SDS011;70637;48.514;14.500;2023-06-14T08:14:16;9.68;;;2.70;;
81160;SDS011;70637;48.514;14.500;2023-06-14T08:16:41;4.57;;;2.30;;
81160;SDS011;70637;48.514;14.500;2023-06-14T08:19:07;6.13;;;2.58;;
81160;SDS011;70637;48.514;14.500;2023-06-14T08:21:33;5.57;;;2.38;;
81160;SDS011;70637;48.514;14.500;2023-06-14T08:24:01;5.28;;;2.42;;
81160;SDS011;70637;48.514;14.500;2023-06-14T08:26:27;4.50;;;2.45;;
81160;SDS011;70637;48.514;14.500;2023-06-14T08:28:56;5.05;;;2.50;;
81160;SDS011;70637;48.514;14.500;2023-06-14T08:31:22;3.75;;;2.47;;
81160;SDS011;70637;48.514;14.500;2023-06-14T08:33:49;12.60;;;5.72;;
81160;SDS011;70637;48.514;14.500;2023-06-14T08:36:14;33.47;;;15.68;;
81160;SDS011;70637;48.514;14.500;2023-06-14T08:38:40;70.78;;;28.65;;
81160;SDS011;70637;48.514;14.500;2023-06-14T08:41:06;99.15;;;38.40;;
81160;SDS011;70637;48.514;14.500;2023-06-14T08:43:36;91.10;;;44.95;;
81160;SDS011;70637;48.514;14.500;2023-06-14T08:46:02;105.68;;;63.63;;
81160;SDS011;70637;48.514;14.500;2023-06-14T08:48:31;115.80;;;65.50;;
81160;SDS011;70637;48.514;14.500;2023-06-14T08:51:01;101.20;;;64.78;;
81160;SDS011;70637;48.514;14.500;2023-06-14T08:53:32;105.22;;;65.20;;
81160;SDS011;70637;48.514;14.500;2023-06-14T08:55:59;104.13;;;56.78;;
81160;SDS011;70637;48.514;14.500;2023-06-14T08:58:29;82.25;;;47.13;;
81160;SDS011;70637;48.514;14.500;2023-06-14T09:00:59;69.20;;;44.78;;
81160;SDS011;70637;48.514;14.500;2023-06-14T09:03:27;69.22;;;40.63;;
81160;SDS011;70637;48.514;14.500;2023-06-14T09:05:58;59.00;;;35.45;;
81160;SDS011;70637;48.514;14.500;2023-06-14T09:08:26;57.47;;;31.70;;
81160;SDS011;70637;48.514;14.500;2023-06-14T09:10:55;47.95;;;26.73;;
81160;SDS011;70637;48.514;14.500;2023-06-14T09:13:21;40.33;;;23.25;;
81160;SDS011;70637;48.514;14.500;2023-06-14T09:15:47;32.03;;;19.98;;
81160;SDS011;70637;48.514;14.500;2023-06-14T09:18:12;34.08;;;17.33;;
81160;SDS011;70637;48.514;14.500;2023-06-14T09:20:38;31.95;;;15.73;;
81160;SDS011;70637;48.514;14.500;2023-06-14T09:23:05;26.55;;;13.88;;
81160;SDS011;70637;48.514;14.500;2023-06-14T09:25:32;24.73;;;12.38;;
81160;SDS011;70637;48.514;14.500;2023-06-14T09:28:07;23.75;;;11.43;;
81160;SDS011;70637;48.514;14.500;2023-06-14T09:30:33;19.30;;;9.85;;
81160;SDS011;70637;48.514;14.500;2023-06-14T09:32:59;20.42;;;8.77;;
81160;SDS011;70637;48.514;14.500;2023-06-14T09:35:25;21.05;;;9.02;;
81160;SDS011;70637;48.514;14.500;2023-06-14T09:37:50;17.90;;;10.98;;
81160;SDS011;70637;48.514;14.500;2023-06-14T09:40:22;20.15;;;12.15;;
81160;SDS011;70637;48.514;14.500;2023-06-14T09:42:48;23.70;;;13.40;;
81160;SDS011;70637;48.514;14.500;2023-06-14T09:45:15;20.52;;;12.95;;
81160;SDS011;70637;48.514;14.500;2023-06-14T09:50:13;20.80;;;10.88;;
81160;SDS011;70637;48.514;14.500;2023-06-14T09:52:39;16.98;;;9.88;;
81160;SDS011;70637;48.514;14.500;2023-06-14T09:55:10;17.45;;;9.63;;
81160;SDS011;70637;48.514;14.500;2023-06-14T09:57:38;14.23;;;8.68;;
81160;SDS011;70637;48.514;14.500;2023-06-14T10:00:07;12.35;;;8.00;;
81160;SDS011;70637;48.514;14.500;2023-06-14T10:02:36;14.90;;;7.60;;
81160;SDS011;70637;48.514;14.500;2023-06-14T10:05:07;13.88;;;7.20;;
81160;SDS011;70637;48.514;14.500;2023-06-14T10:07:44;14.57;;;7.20;;
81160;SDS011;70637;48.514;14.500;2023-06-14T10:10:25;13.18;;;6.22;;
81160;SDS011;70637;48.514;14.500;2023-06-14T10:12:51;11.20;;;6.00;;
81160;SDS011;70637;48.514;14.500;2023-06-14T10:15:22;10.10;;;5.57;;
81160;SDS011;70637;48.514;14.500;2023-06-14T10:17:55;11.18;;;5.78;;
81160;SDS011;70637;48.514;14.500;2023-06-14T10:20:35;11.60;;;5.57;;
81160;SDS011;70637;48.514;14.500;2023-06-14T10:25:41;10.27;;;4.53;;
81160;SDS011;70637;48.514;14.500;2023-06-14T10:28:20;11.68;;;3.92;;
81160;SDS011;70637;48.514;14.500;2023-06-14T10:31:05;12.35;;;4.50;;
81160;SDS011;70637;48.514;14.500;2023-06-14T10:33:56;8.88;;;4.00;;
81160;SDS011;70637;48.514;14.500;2023-06-14T10:38:57;12.07;;;3.70;;
81160;SDS011;70637;48.514;14.500;2023-06-14T10:41:29;8.38;;;3.58;;
81160;SDS011;70637;48.514;14.500;2023-06-14T10:46:48;8.07;;;3.20;;
81160;SDS011;70637;48.514;14.500;2023-06-14T10:49:17;5.18;;;3.13;;
81160;SDS011;70637;48.514;14.500;2023-06-14T10:51:44;8.10;;;3.25;;
81160;SDS011;70637;48.514;14.500;2023-06-14T10:54:16;9.07;;;3.20;;
81160;SDS011;70637;48.514;14.500;2023-06-14T10:56:51;11.27;;;3.35;;
81160;SDS011;70637;48.514;14.500;2023-06-14T10:59:19;7.72;;;3.30;;
81160;SDS011;70637;48.514;14.500;2023-06-14T11:04:50;5.95;;;3.47;;
81160;SDS011;70637;48.514;14.500;2023-06-14T11:12:47;15.50;;;3.40;;
81160;SDS011;70637;48.514;14.500;2023-06-14T11:15:14;15.30;;;3.88;;
81160;SDS011;70637;48.514;14.500;2023-06-14T11:17:49;17.88;;;4.10;;
81160;SDS011;70637;48.514;14.500;2023-06-14T11:20:23;17.88;;;4.03;;
81160;SDS011;70637;48.514;14.500;2023-06-14T11:22:51;20.52;;;3.67;;
81160;SDS011;70637;48.514;14.500;2023-06-14T11:25:18;22.15;;;4.53;;
81160;SDS011;70637;48.514;14.500;2023-06-14T11:27:44;19.73;;;4.22;;
81160;SDS011;70637;48.514;14.500;2023-06-14T11:30:10;24.48;;;5.00;;
81160;SDS011;70637;48.514;14.500;2023-06-14T11:32:37;21.70;;;3.90;;
81160;SDS011;70637;48.514;14.500;2023-06-14T11:35:03;17.02;;;3.95;;
81160;SDS011;70637;48.514;14.500;2023-06-14T11:37:30;21.20;;;4.43;;
81160;SDS011;70637;48.514;14.500;2023-06-14T11:39:59;19.00;;;4.30;;
81160;SDS011;70637;48.514;14.500;2023-06-14T11:42:26;33.72;;;4.75;;
81160;SDS011;70637;48.514;14.500;2023-06-14T11:44:53;19.90;;;4.28;;
81160;SDS011;70637;48.514;14.500;2023-06-14T11:47:19;25.02;;;4.82;;
81160;SDS011;70637;48.514;14.500;2023-06-14T11:49:46;18.42;;;4.35;;
81160;SDS011;70637;48.514;14.500;2023-06-14T11:52:12;19.00;;;4.22;;
81160;SDS011;70637;48.514;14.500;2023-06-14T11:54:39;17.35;;;4.20;;
81160;SDS011;70637;48.514;14.500;2023-06-14T11:57:06;24.65;;;4.80;;
81160;SDS011;70637;48.514;14.500;2023-06-14T11:59:41;24.60;;;4.80;;
81160;SDS011;70637;48.514;14.500;2023-06-14T12:02:09;28.02;;;4.68;;
81160;SDS011;70637;48.514;14.500;2023-06-14T12:04:40;20.90;;;4.50;;
81160;SDS011;70637;48.514;14.500;2023-06-14T12:07:10;17.83;;;4.22;;
81160;SDS011;70637;48.514;14.500;2023-06-14T12:09:40;15.98;;;4.45;;
81160;SDS011;70637;48.514;14.500;2023-06-14T12:12:18;16.00;;;4.30;;
81160;SDS011;70637;48.514;14.500;2023-06-14T12:14:46;17.42;;;4.35;;
81160;SDS011;70637;48.514;14.500;2023-06-14T12:17:12;13.73;;;3.78;;
81160;SDS011;70637;48.514;14.500;2023-06-14T12:19:41;17.80;;;4.50;;
81160;SDS011;70637;48.514;14.500;2023-06-14T12:22:12;21.43;;;4.23;;
81160;SDS011;70637;48.514;14.500;2023-06-14T12:24:38;19.05;;;4.28;;
81160;SDS011;70637;48.514;14.500;2023-06-14T12:27:07;20.63;;;4.60;;
81160;SDS011;70637;48.514;14.500;2023-06-14T12:29:33;32.90;;;5.43;;
81160;SDS011;70637;48.514;14.500;2023-06-14T12:31:59;92.40;;;14.55;;
81160;SDS011;70637;48.514;14.500;2023-06-14T12:34:25;104.53;;;15.05;;
81160;SDS011;70637;48.514;14.500;2023-06-14T12:36:55;99.38;;;16.35;;
81160;SDS011;70637;48.514;14.500;2023-06-14T12:39:21;104.93;;;15.73;;
81160;SDS011;70637;48.514;14.500;2023-06-14T12:41:47;84.97;;;14.30;;
81160;SDS011;70637;48.514;14.500;2023-06-14T12:44:14;80.10;;;14.57;;
81160;SDS011;70637;48.514;14.500;2023-06-14T12:46:40;81.13;;;14.00;;
81160;SDS011;70637;48.514;14.500;2023-06-14T12:49:08;82.10;;;14.50;;
81160;SDS011;70637;48.514;14.500;2023-06-14T12:51:34;59.10;;;13.25;;
81160;SDS011;70637;48.514;14.500;2023-06-14T12:54:00;61.08;;;13.00;;
81160;SDS011;70637;48.514;14.500;2023-06-14T12:56:25;63.75;;;11.93;;
81160;SDS011;70637;48.514;14.500;2023-06-14T12:58:51;54.83;;;11.65;;
81160;SDS011;70637;48.514;14.500;2023-06-14T13:01:17;55.38;;;11.82;;
81160;SDS011;70637;48.514;14.500;2023-06-14T13:03:43;64.28;;;11.52;;
81160;SDS011;70637;48.514;14.500;2023-06-14T13:06:08;52.28;;;11.35;;
81160;SDS011;70637;48.514;14.500;2023-06-14T13:08:34;52.80;;;11.07;;
81160;SDS011;70637;48.514;14.500;2023-06-14T13:10:59;49.08;;;10.40;;
81160;SDS011;70637;48.514;14.500;2023-06-14T13:13:25;46.60;;;10.82;;
81160;SDS011;70637;48.514;14.500;2023-06-14T13:15:51;40.92;;;9.73;;
81160;SDS011;70637;48.514;14.500;2023-06-14T13:18:16;48.00;;;10.73;;
81160;SDS011;70637;48.514;14.500;2023-06-14T13:20:42;49.47;;;10.82;;
81160;SDS011;70637;48.514;14.500;2023-06-14T13:23:08;50.20;;;10.50;;
81160;SDS011;70637;48.514;14.500;2023-06-14T13:25:35;52.80;;;11.45;;
81160;SDS011;70637;48.514;14.500;2023-06-14T13:28:01;42.47;;;9.77;;
81160;SDS011;70637;48.514;14.500;2023-06-14T13:30:27;46.47;;;9.93;;
81160;SDS011;70637;48.514;14.500;2023-06-14T13:32:53;35.20;;;8.85;;
81160;SDS011;70637;48.514;14.500;2023-06-14T13:35:19;33.65;;;8.88;;
81160;SDS011;70637;48.514;14.500;2023-06-14T13:37:44;32.75;;;8.40;;
81160;SDS011;70637;48.514;14.500;2023-06-14T13:40:10;34.22;;;8.65;;
81160;SDS011;70637;48.514;14.500;2023-06-14T13:42:37;33.70;;;8.60;;
81160;SDS011;70637;48.514;14.500;2023-06-14T13:45:03;29.58;;;7.57;;
81160;SDS011;70637;48.514;14.500;2023-06-14T13:47:29;32.83;;;7.65;;
81160;SDS011;70637;48.514;14.500;2023-06-14T13:49:56;28.35;;;7.45;;
81160;SDS011;70637;48.514;14.500;2023-06-14T13:52:21;33.67;;;7.55;;
81160;SDS011;70637;48.514;14.500;2023-06-14T13:54:47;24.35;;;7.00;;
81160;SDS011;70637;48.514;14.500;2023-06-14T13:57:13;27.75;;;7.15;;
81160;SDS011;70637;48.514;14.500;2023-06-14T13:59:39;25.85;;;6.90;;
81160;SDS011;70637;48.514;14.500;2023-06-14T14:02:05;21.67;;;6.47;;
81160;SDS011;70637;48.514;14.500;2023-06-14T14:04:32;25.08;;;6.78;;
81160;SDS011;70637;48.514;14.500;2023-06-14T14:06:59;19.75;;;6.40;;
81160;SDS011;70637;48.514;14.500;2023-06-14T14:09:24;20.67;;;6.65;;
81160;SDS011;70637;48.514;14.500;2023-06-14T14:11:50;21.60;;;6.18;;
81160;SDS011;70637;48.514;14.500;2023-06-14T14:14:16;20.95;;;6.65;;
81160;SDS011;70637;48.514;14.500;2023-06-14T14:16:41;20.60;;;5.95;;
81160;SDS011;70637;48.514;14.500;2023-06-14T14:19:09;22.77;;;6.28;;
81160;SDS011;70637;48.514;14.500;2023-06-14T14:21:35;26.08;;;6.30;;
81160;SDS011;70637;48.514;14.500;2023-06-14T14:24:00;19.98;;;6.10;;
81160;SDS011;70637;48.514;14.500;2023-06-14T14:26:26;19.92;;;6.07;;
81160;SDS011;70637;48.514;14.500;2023-06-14T14:28:52;23.05;;;6.00;;
81160;SDS011;70637;48.514;14.500;2023-06-14T14:31:18;21.42;;;6.10;;
81160;SDS011;70637;48.514;14.500;2023-06-14T14:33:44;17.05;;;5.55;;
81160;SDS011;70637;48.514;14.500;2023-06-14T14:36:09;20.92;;;6.07;;
81160;SDS011;70637;48.514;14.500;2023-06-14T14:38:35;16.20;;;5.57;;
81160;SDS011;70637;48.514;14.500;2023-06-14T14:41:01;17.67;;;5.80;;
81160;SDS011;70637;48.514;14.500;2023-06-14T14:43:26;20.45;;;5.95;;
81160;SDS011;70637;48.514;14.500;2023-06-14T14:45:55;17.33;;;5.80;;
81160;SDS011;70637;48.514;14.500;2023-06-14T14:48:20;19.65;;;6.00;;
81160;SDS011;70637;48.514;14.500;2023-06-14T14:50:46;13.05;;;5.72;;